sensor_id;sensor_type;location;lat;lon;timestamp;temperature;humidity
47174;DHT22;36730;49.036;9.094;2022-07-19T00:00:04;31.70;47.60
47174;DHT22;36730;49.036;9.094;2022-07-19T00:02:32;31.70;47.40
47174;DHT22;36730;49.036;9.094;2022-07-19T00:04:58;31.70;47.50
47174;DHT22;36730;49.036;9.094;2022-07-19T00:07:23;31.80;47.50
47174;DHT22;36730;49.036;9.094;2022-07-19T00:09:49;31.70;47.70
47174;DHT22;36730;49.036;9.094;2022-07-19T00:12:14;31.70;47.60
47174;DHT22;36730;49.036;9.094;2022-07-19T00:14:40;31.70;47.70
47174;DHT22;36730;49.036;9.094;2022-07-19T00:17:06;31.70;47.80
47174;DHT22;36730;49.036;9.094;2022-07-19T00:19:31;31.70;47.70
47174;DHT22;36730;49.036;9.094;2022-07-19T00:21:57;31.70;47.80
47174;DHT22;36730;49.036;9.094;2022-07-19T00:24:22;31.70;47.70
47174;DHT22;36730;49.036;9.094;2022-07-19T00:26:48;31.70;47.90
47174;DHT22;36730;49.036;9.094;2022-07-19T00:29:13;31.70;47.80
47174;DHT22;36730;49.036;9.094;2022-07-19T00:31:39;31.70;48.00
47174;DHT22;36730;49.036;9.094;2022-07-19T00:34:04;31.70;47.90
47174;DHT22;36730;49.036;9.094;2022-07-19T00:36:30;31.70;47.80
47174;DHT22;36730;49.036;9.094;2022-07-19T00:38:55;31.70;48.10
47174;DHT22;36730;49.036;9.094;2022-07-19T00:41:20;31.70;48.00
47174;DHT22;36730;49.036;9.094;2022-07-19T00:43:46;31.70;48.20
47174;DHT22;36730;49.036;9.094;2022-07-19T00:46:15;31.60;48.10
47174;DHT22;36730;49.036;9.094;2022-07-19T00:48:41;31.60;48.30
47174;DHT22;36730;49.036;9.094;2022-07-19T00:51:07;31.60;48.20
47174;DHT22;36730;49.036;9.094;2022-07-19T00:53:34;31.60;48.20
47174;DHT22;36730;49.036;9.094;2022-07-19T00:56:02;31.60;48.20
47174;DHT22;36730;49.036;9.094;2022-07-19T00:58:28;31.60;48.10
47174;DHT22;36730;49.036;9.094;2022-07-19T01:00:54;31.60;48.10
47174;DHT22;36730;49.036;9.094;2022-07-19T01:03:20;31.60;48.40
47174;DHT22;36730;49.036;9.094;2022-07-19T01:05:45;31.60;48.50
47174;DHT22;36730;49.036;9.094;2022-07-19T01:08:12;31.60;48.70
47174;DHT22;36730;49.036;9.094;2022-07-19T01:10:37;31.50;48.70
47174;DHT22;36730;49.036;9.094;2022-07-19T01:13:03;31.50;48.70
47174;DHT22;36730;49.036;9.094;2022-07-19T01:15:28;31.50;48.60
47174;DHT22;36730;49.036;9.094;2022-07-19T01:17:54;31.50;48.50
47174;DHT22;36730;49.036;9.094;2022-07-19T01:20:20;31.50;48.50
47174;DHT22;36730;49.036;9.094;2022-07-19T01:22:46;31.50;48.80
47174;DHT22;36730;49.036;9.094;2022-07-19T01:25:12;31.50;48.70
47174;DHT22;36730;49.036;9.094;2022-07-19T01:27:38;31.50;48.70
47174;DHT22;36730;49.036;9.094;2022-07-19T01:30:09;31.50;48.90
47174;DHT22;36730;49.036;9.094;2022-07-19T01:32:35;31.50;48.90
47174;DHT22;36730;49.036;9.094;2022-07-19T01:35:00;31.50;49.00
47174;DHT22;36730;49.036;9.094;2022-07-19T01:37:26;31.40;48.90
47174;DHT22;36730;49.036;9.094;2022-07-19T01:39:51;31.50;49.00
47174;DHT22;36730;49.036;9.094;2022-07-19T01:42:21;31.40;48.90
47174;DHT22;36730;49.036;9.094;2022-07-19T01:44:49;31.40;49.00
47174;DHT22;36730;49.036;9.094;2022-07-19T01:47:14;31.40;48.70
47174;DHT22;36730;49.036;9.094;2022-07-19T01:49:40;31.40;48.90
47174;DHT22;36730;49.036;9.094;2022-07-19T01:52:05;31.40;49.00
47174;DHT22;36730;49.036;9.094;2022-07-19T01:54:31;31.40;49.10
47174;DHT22;36730;49.036;9.094;2022-07-19T01:56:56;31.40;49.20
47174;DHT22;36730;49.036;9.094;2022-07-19T01:59:22;31.40;49.20
47174;DHT22;36730;49.036;9.094;2022-07-19T02:01:47;31.40;49.20
47174;DHT22;36730;49.036;9.094;2022-07-19T02:04:13;31.30;49.30
47174;DHT22;36730;49.036;9.094;2022-07-19T02:06:38;31.30;49.20
47174;DHT22;36730;49.036;9.094;2022-07-19T02:09:04;31.30;49.20
47174;DHT22;36730;49.036;9.094;2022-07-19T02:11:29;31.30;49.10
47174;DHT22;36730;49.036;9.094;2022-07-19T02:14:01;31.30;49.20
47174;DHT22;36730;49.036;9.094;2022-07-19T02:16:27;31.30;49.20
47174;DHT22;36730;49.036;9.094;2022-07-19T02:18:52;31.30;49.40
47174;DHT22;36730;49.036;9.094;2022-07-19T02:21:18;31.30;49.50
47174;DHT22;36730;49.036;9.094;2022-07-19T02:23:43;31.30;50.20
47174;DHT22;36730;49.036;9.094;2022-07-19T02:26:09;31.30;49.60
47174;DHT22;36730;49.036;9.094;2022-07-19T02:28:34;31.30;49.50
47174;DHT22;36730;49.036;9.094;2022-07-19T02:31:00;31.30;49.50
47174;DHT22;36730;49.036;9.094;2022-07-19T02:33:25;31.30;49.40
47174;DHT22;36730;49.036;9.094;2022-07-19T02:35:51;31.30;49.40
47174;DHT22;36730;49.036;9.094;2022-07-19T02:38:16;31.30;49.50
47174;DHT22;36730;49.036;9.094;2022-07-19T02:40:42;31.30;49.60
47174;DHT22;36730;49.036;9.094;2022-07-19T02:43:07;31.20;49.70
47174;DHT22;36730;49.036;9.094;2022-07-19T02:45:33;31.20;49.80
47174;DHT22;36730;49.036;9.094;2022-07-19T02:47:58;31.30;49.80
47174;DHT22;36730;49.036;9.094;2022-07-19T02:50:24;31.20;49.80
47174;DHT22;36730;49.036;9.094;2022-07-19T02:52:50;31.30;49.90
47174;DHT22;36730;49.036;9.094;2022-07-19T02:55:15;31.30;49.70
47174;DHT22;36730;49.036;9.094;2022-07-19T02:57:41;31.20;49.80
47174;DHT22;36730;49.036;9.094;2022-07-19T03:00:07;31.20;50.00
47174;DHT22;36730;49.036;9.094;2022-07-19T03:02:35;31.20;49.90
47174;DHT22;36730;49.036;9.094;2022-07-19T03:05:01;31.20;50.10
47174;DHT22;36730;49.036;9.094;2022-07-19T03:07:26;31.20;50.20
47174;DHT22;36730;49.036;9.094;2022-07-19T03:09:52;31.10;49.70
47174;DHT22;36730;49.036;9.094;2022-07-19T03:12:17;31.00;47.60
47174;DHT22;36730;49.036;9.094;2022-07-19T03:14:43;30.70;47.10
47174;DHT22;36730;49.036;9.094;2022-07-19T03:17:08;30.50;47.20
47174;DHT22;36730;49.036;9.094;2022-07-19T03:19:34;30.20;47.80
47174;DHT22;36730;49.036;9.094;2022-07-19T03:21:59;30.00;48.10
47174;DHT22;36730;49.036;9.094;2022-07-19T03:24:25;29.80;48.20
47174;DHT22;36730;49.036;9.094;2022-07-19T03:26:50;29.60;49.00
47174;DHT22;36730;49.036;9.094;2022-07-19T03:29:16;29.50;49.10
47174;DHT22;36730;49.036;9.094;2022-07-19T03:31:42;29.50;48.90
47174;DHT22;36730;49.036;9.094;2022-07-19T03:34:07;29.50;49.80
47174;DHT22;36730;49.036;9.094;2022-07-19T03:36:32;29.40;49.70
47174;DHT22;36730;49.036;9.094;2022-07-19T03:38:58;29.40;49.10
47174;DHT22;36730;49.036;9.094;2022-07-19T03:41:23;29.40;49.80
47174;DHT22;36730;49.036;9.094;2022-07-19T03:43:49;29.30;49.20
47174;DHT22;36730;49.036;9.094;2022-07-19T03:46:14;29.30;49.90
47174;DHT22;36730;49.036;9.094;2022-07-19T03:48:40;29.30;52.50
47174;DHT22;36730;49.036;9.094;2022-07-19T03:51:06;29.20;49.80
47174;DHT22;36730;49.036;9.094;2022-07-19T03:53:31;29.10;49.80
47174;DHT22;36730;49.036;9.094;2022-07-19T03:55:59;29.10;49.30
47174;DHT22;36730;49.036;9.094;2022-07-19T03:58:25;29.10;50.20
47174;DHT22;36730;49.036;9.094;2022-07-19T04:00:50;29.00;50.00
47174;DHT22;36730;49.036;9.094;2022-07-19T04:03:16;28.90;50.00
47174;DHT22;36730;49.036;9.094;2022-07-19T04:05:41;28.90;50.10
47174;DHT22;36730;49.036;9.094;2022-07-19T04:08:07;28.90;50.30
47174;DHT22;36730;49.036;9.094;2022-07-19T04:10:32;28.80;50.80
47174;DHT22;36730;49.036;9.094;2022-07-19T04:12:58;28.80;51.20
47174;DHT22;36730;49.036;9.094;2022-07-19T04:15:23;28.70;50.70
47174;DHT22;36730;49.036;9.094;2022-07-19T04:17:49;28.60;51.80
47174;DHT22;36730;49.036;9.094;2022-07-19T04:20:14;28.60;51.40
47174;DHT22;36730;49.036;9.094;2022-07-19T04:22:40;28.50;51.90
47174;DHT22;36730;49.036;9.094;2022-07-19T04:25:05;28.30;51.20
47174;DHT22;36730;49.036;9.094;2022-07-19T04:27:31;28.20;52.60
47174;DHT22;36730;49.036;9.094;2022-07-19T04:29:56;28.10;52.50
47174;DHT22;36730;49.036;9.094;2022-07-19T04:32:22;27.90;53.30
47174;DHT22;36730;49.036;9.094;2022-07-19T04:34:48;27.70;54.20
47174;DHT22;36730;49.036;9.094;2022-07-19T04:37:13;27.60;54.30
47174;DHT22;36730;49.036;9.094;2022-07-19T04:39:39;27.40;54.50
47174;DHT22;36730;49.036;9.094;2022-07-19T04:42:04;27.30;54.70
47174;DHT22;36730;49.036;9.094;2022-07-19T04:44:30;27.20;55.90
47174;DHT22;36730;49.036;9.094;2022-07-19T04:46:55;27.10;55.20
47174;DHT22;36730;49.036;9.094;2022-07-19T04:49:21;27.10;56.00
47174;DHT22;36730;49.036;9.094;2022-07-19T04:51:46;27.00;56.50
47174;DHT22;36730;49.036;9.094;2022-07-19T04:54:12;26.90;56.40
47174;DHT22;36730;49.036;9.094;2022-07-19T04:56:37;26.80;56.60
47174;DHT22;36730;49.036;9.094;2022-07-19T04:59:03;26.70;56.50
47174;DHT22;36730;49.036;9.094;2022-07-19T05:01:28;26.60;56.30
47174;DHT22;36730;49.036;9.094;2022-07-19T05:03:56;26.60;57.30
47174;DHT22;36730;49.036;9.094;2022-07-19T05:06:21;26.50;57.90
47174;DHT22;36730;49.036;9.094;2022-07-19T05:08:50;26.50;57.00
47174;DHT22;36730;49.036;9.094;2022-07-19T05:11:16;26.40;57.10
47174;DHT22;36730;49.036;9.094;2022-07-19T05:13:41;26.40;57.60
47174;DHT22;36730;49.036;9.094;2022-07-19T05:16:07;26.40;59.10
47174;DHT22;36730;49.036;9.094;2022-07-19T05:18:32;26.40;58.90
47174;DHT22;36730;49.036;9.094;2022-07-19T05:20:58;26.40;58.40
47174;DHT22;36730;49.036;9.094;2022-07-19T05:23:23;26.40;57.90
47174;DHT22;36730;49.036;9.094;2022-07-19T05:25:49;26.40;58.30
47174;DHT22;36730;49.036;9.094;2022-07-19T05:28:14;26.40;59.20
47174;DHT22;36730;49.036;9.094;2022-07-19T05:30:40;26.40;58.70
47174;DHT22;36730;49.036;9.094;2022-07-19T05:33:07;26.40;58.00
47174;DHT22;36730;49.036;9.094;2022-07-19T05:35:33;26.40;59.00
47174;DHT22;36730;49.036;9.094;2022-07-19T05:37:58;26.50;57.90
47174;DHT22;36730;49.036;9.094;2022-07-19T05:40:24;26.50;57.20
47174;DHT22;36730;49.036;9.094;2022-07-19T05:42:49;26.50;57.30
47174;DHT22;36730;49.036;9.094;2022-07-19T05:45:15;26.60;56.80
47174;DHT22;36730;49.036;9.094;2022-07-19T05:47:40;26.60;57.40
47174;DHT22;36730;49.036;9.094;2022-07-19T05:50:06;26.60;57.50
47174;DHT22;36730;49.036;9.094;2022-07-19T05:52:31;26.60;57.40
47174;DHT22;36730;49.036;9.094;2022-07-19T05:54:57;26.70;58.30
47174;DHT22;36730;49.036;9.094;2022-07-19T05:57:22;26.70;57.00
47174;DHT22;36730;49.036;9.094;2022-07-19T05:59:48;26.70;58.30
47174;DHT22;36730;49.036;9.094;2022-07-19T06:02:13;26.70;57.40
47174;DHT22;36730;49.036;9.094;2022-07-19T06:04:40;26.80;57.00
47174;DHT22;36730;49.036;9.094;2022-07-19T06:07:05;26.80;57.20
47174;DHT22;36730;49.036;9.094;2022-07-19T06:09:31;26.90;58.00
47174;DHT22;36730;49.036;9.094;2022-07-19T06:11:56;26.90;57.60
47174;DHT22;36730;49.036;9.094;2022-07-19T06:14:22;26.90;57.10
47174;DHT22;36730;49.036;9.094;2022-07-19T06:16:47;27.00;55.90
47174;DHT22;36730;49.036;9.094;2022-07-19T06:19:13;27.00;56.20
47174;DHT22;36730;49.036;9.094;2022-07-19T06:21:38;27.00;56.60
47174;DHT22;36730;49.036;9.094;2022-07-19T06:24:04;27.10;56.80
47174;DHT22;36730;49.036;9.094;2022-07-19T06:26:30;27.10;57.20
47174;DHT22;36730;49.036;9.094;2022-07-19T06:28:55;27.10;56.70
47174;DHT22;36730;49.036;9.094;2022-07-19T06:31:21;27.20;57.00
47174;DHT22;36730;49.036;9.094;2022-07-19T06:33:47;27.20;56.10
47174;DHT22;36730;49.036;9.094;2022-07-19T06:36:13;27.20;56.40
47174;DHT22;36730;49.036;9.094;2022-07-19T06:38:39;27.20;56.20
47174;DHT22;36730;49.036;9.094;2022-07-19T06:41:04;27.30;57.20
47174;DHT22;36730;49.036;9.094;2022-07-19T06:43:30;27.30;57.40
47174;DHT22;36730;49.036;9.094;2022-07-19T06:45:56;27.40;57.10
47174;DHT22;36730;49.036;9.094;2022-07-19T06:48:21;27.40;56.70
47174;DHT22;36730;49.036;9.094;2022-07-19T06:50:47;27.50;56.40
47174;DHT22;36730;49.036;9.094;2022-07-19T06:53:12;27.60;55.80
47174;DHT22;36730;49.036;9.094;2022-07-19T06:55:38;27.70;55.80
47174;DHT22;36730;49.036;9.094;2022-07-19T06:58:03;27.80;55.60
47174;DHT22;36730;49.036;9.094;2022-07-19T07:00:29;27.80;54.70
47174;DHT22;36730;49.036;9.094;2022-07-19T07:02:54;27.90;55.20
47174;DHT22;36730;49.036;9.094;2022-07-19T07:05:20;28.00;53.90
47174;DHT22;36730;49.036;9.094;2022-07-19T07:07:45;28.00;53.50
47174;DHT22;36730;49.036;9.094;2022-07-19T07:10:12;28.10;53.80
47174;DHT22;36730;49.036;9.094;2022-07-19T07:12:38;28.20;52.60
47174;DHT22;36730;49.036;9.094;2022-07-19T07:15:04;28.20;51.60
47174;DHT22;36730;49.036;9.094;2022-07-19T07:17:30;28.30;51.20
47174;DHT22;36730;49.036;9.094;2022-07-19T07:19:56;28.30;51.10
47174;DHT22;36730;49.036;9.094;2022-07-19T07:22:22;28.30;50.70
47174;DHT22;36730;49.036;9.094;2022-07-19T07:24:47;28.40;50.30
47174;DHT22;36730;49.036;9.094;2022-07-19T07:27:13;28.50;50.50
47174;DHT22;36730;49.036;9.094;2022-07-19T07:29:38;28.50;50.40
47174;DHT22;36730;49.036;9.094;2022-07-19T07:32:04;28.50;50.30
47174;DHT22;36730;49.036;9.094;2022-07-19T07:34:29;28.60;51.00
47174;DHT22;36730;49.036;9.094;2022-07-19T07:36:55;28.70;50.10
47174;DHT22;36730;49.036;9.094;2022-07-19T07:39:20;28.70;50.30
47174;DHT22;36730;49.036;9.094;2022-07-19T07:41:46;28.80;49.50
47174;DHT22;36730;49.036;9.094;2022-07-19T07:44:11;28.90;49.90
47174;DHT22;36730;49.036;9.094;2022-07-19T07:46:37;29.00;49.50
47174;DHT22;36730;49.036;9.094;2022-07-19T07:49:02;29.10;50.10
47174;DHT22;36730;49.036;9.094;2022-07-19T07:51:28;29.20;49.80
47174;DHT22;36730;49.036;9.094;2022-07-19T07:53:54;29.20;49.10
47174;DHT22;36730;49.036;9.094;2022-07-19T07:56:19;29.30;49.70
47174;DHT22;36730;49.036;9.094;2022-07-19T07:58:45;29.30;49.20
47174;DHT22;36730;49.036;9.094;2022-07-19T08:01:10;29.40;49.30
47174;DHT22;36730;49.036;9.094;2022-07-19T08:03:36;29.40;48.90
47174;DHT22;36730;49.036;9.094;2022-07-19T08:06:01;29.40;51.20
47174;DHT22;36730;49.036;9.094;2022-07-19T08:08:27;29.50;49.90
47174;DHT22;36730;49.036;9.094;2022-07-19T08:10:53;29.50;47.50
47174;DHT22;36730;49.036;9.094;2022-07-19T08:13:19;29.50;49.40
47174;DHT22;36730;49.036;9.094;2022-07-19T08:15:44;29.60;49.30
47174;DHT22;36730;49.036;9.094;2022-07-19T08:18:10;29.60;49.80
47174;DHT22;36730;49.036;9.094;2022-07-19T08:20:35;29.70;49.10
47174;DHT22;36730;49.036;9.094;2022-07-19T08:23:00;29.70;48.90
47174;DHT22;36730;49.036;9.094;2022-07-19T08:25:26;29.80;50.60
47174;DHT22;36730;49.036;9.094;2022-07-19T08:27:51;29.80;49.40
47174;DHT22;36730;49.036;9.094;2022-07-19T08:30:17;29.90;49.70
47174;DHT22;36730;49.036;9.094;2022-07-19T08:32:43;29.90;48.10
47174;DHT22;36730;49.036;9.094;2022-07-19T08:35:08;30.00;48.20
47174;DHT22;36730;49.036;9.094;2022-07-19T08:37:34;30.00;48.40
47174;DHT22;36730;49.036;9.094;2022-07-19T08:40:00;30.10;48.40
47174;DHT22;36730;49.036;9.094;2022-07-19T08:42:26;30.10;48.50
47174;DHT22;36730;49.036;9.094;2022-07-19T08:44:52;30.20;48.20
47174;DHT22;36730;49.036;9.094;2022-07-19T08:47:18;30.20;48.40
47174;DHT22;36730;49.036;9.094;2022-07-19T08:49:44;30.30;48.40
47174;DHT22;36730;49.036;9.094;2022-07-19T08:52:10;30.40;48.10
47174;DHT22;36730;49.036;9.094;2022-07-19T08:54:36;30.40;48.80
47174;DHT22;36730;49.036;9.094;2022-07-19T08:57:01;30.50;50.80
47174;DHT22;36730;49.036;9.094;2022-07-19T08:59:45;30.50;47.70
47174;DHT22;36730;49.036;9.094;2022-07-19T09:02:11;30.60;47.80
47174;DHT22;36730;49.036;9.094;2022-07-19T09:04:36;30.70;47.30
47174;DHT22;36730;49.036;9.094;2022-07-19T09:07:02;30.70;47.50
47174;DHT22;36730;49.036;9.094;2022-07-19T09:09:29;30.70;46.80
47174;DHT22;36730;49.036;9.094;2022-07-19T09:11:55;30.80;47.10
47174;DHT22;36730;49.036;9.094;2022-07-19T09:14:22;30.90;47.00
47174;DHT22;36730;49.036;9.094;2022-07-19T09:19:16;30.90;46.50
47174;DHT22;36730;49.036;9.094;2022-07-19T09:21:52;31.00;48.80
47174;DHT22;36730;49.036;9.094;2022-07-19T09:24:18;31.00;46.40
47174;DHT22;36730;49.036;9.094;2022-07-19T09:29:29;31.10;45.60
47174;DHT22;36730;49.036;9.094;2022-07-19T09:32:01;31.20;44.60
47174;DHT22;36730;49.036;9.094;2022-07-19T09:34:28;31.20;45.20
47174;DHT22;36730;49.036;9.094;2022-07-19T09:37:13;31.30;43.70
47174;DHT22;36730;49.036;9.094;2022-07-19T09:39:40;31.30;45.30
47174;DHT22;36730;49.036;9.094;2022-07-19T09:42:07;31.40;43.90
47174;DHT22;36730;49.036;9.094;2022-07-19T09:44:33;31.40;44.30
47174;DHT22;36730;49.036;9.094;2022-07-19T09:46:59;31.50;43.30
47174;DHT22;36730;49.036;9.094;2022-07-19T09:49:24;31.50;43.70
47174;DHT22;36730;49.036;9.094;2022-07-19T09:51:51;31.60;43.30
47174;DHT22;36730;49.036;9.094;2022-07-19T09:54:18;31.60;43.40
47174;DHT22;36730;49.036;9.094;2022-07-19T09:56:44;31.70;43.40
47174;DHT22;36730;49.036;9.094;2022-07-19T09:59:10;31.70;43.20
47174;DHT22;36730;49.036;9.094;2022-07-19T10:01:36;31.70;43.20
47174;DHT22;36730;49.036;9.094;2022-07-19T10:04:13;31.80;42.30
47174;DHT22;36730;49.036;9.094;2022-07-19T10:06:40;31.80;41.90
47174;DHT22;36730;49.036;9.094;2022-07-19T10:09:07;31.80;43.30
47174;DHT22;36730;49.036;9.094;2022-07-19T10:11:33;31.90;42.50
47174;DHT22;36730;49.036;9.094;2022-07-19T10:13:58;31.90;42.60
47174;DHT22;36730;49.036;9.094;2022-07-19T10:19:05;32.00;42.70
47174;DHT22;36730;49.036;9.094;2022-07-19T10:21:33;32.10;42.50
47174;DHT22;36730;49.036;9.094;2022-07-19T10:24:00;32.20;42.70
47174;DHT22;36730;49.036;9.094;2022-07-19T10:26:36;32.20;42.40
47174;DHT22;36730;49.036;9.094;2022-07-19T10:31:34;32.30;41.90
47174;DHT22;36730;49.036;9.094;2022-07-19T10:34:06;32.40;41.90
47174;DHT22;36730;49.036;9.094;2022-07-19T10:37:05;32.40;42.20
47174;DHT22;36730;49.036;9.094;2022-07-19T10:39:25;32.40;42.10
47174;DHT22;36730;49.036;9.094;2022-07-19T10:42:08;32.40;41.70
47174;DHT22;36730;49.036;9.094;2022-07-19T10:44:35;32.50;42.00
47174;DHT22;36730;49.036;9.094;2022-07-19T10:47:00;32.50;40.70
47174;DHT22;36730;49.036;9.094;2022-07-19T10:49:41;32.50;40.10
47174;DHT22;36730;49.036;9.094;2022-07-19T10:57:37;32.60;39.90
47174;DHT22;36730;49.036;9.094;2022-07-19T11:05:46;32.60;40.00
47174;DHT22;36730;49.036;9.094;2022-07-19T11:08:12;32.70;39.80
47174;DHT22;36730;49.036;9.094;2022-07-19T11:10:37;32.80;39.50
47174;DHT22;36730;49.036;9.094;2022-07-19T11:13:03;32.80;40.40
47174;DHT22;36730;49.036;9.094;2022-07-19T11:15:28;32.80;39.70
47174;DHT22;36730;49.036;9.094;2022-07-19T11:17:55;32.90;39.90
47174;DHT22;36730;49.036;9.094;2022-07-19T11:20:24;32.90;38.90
47174;DHT22;36730;49.036;9.094;2022-07-19T11:22:50;33.00;39.30
47174;DHT22;36730;49.036;9.094;2022-07-19T11:25:22;33.00;38.40
47174;DHT22;36730;49.036;9.094;2022-07-19T11:27:47;33.10;37.70
47174;DHT22;36730;49.036;9.094;2022-07-19T11:30:13;33.10;38.20
47174;DHT22;36730;49.036;9.094;2022-07-19T11:32:39;33.10;37.10
47174;DHT22;36730;49.036;9.094;2022-07-19T11:35:08;33.20;37.50
47174;DHT22;36730;49.036;9.094;2022-07-19T11:37:35;33.30;37.10
47174;DHT22;36730;49.036;9.094;2022-07-19T11:40:01;33.30;37.10
47174;DHT22;36730;49.036;9.094;2022-07-19T11:42:37;33.30;37.00
47174;DHT22;36730;49.036;9.094;2022-07-19T11:45:12;33.40;36.90
47174;DHT22;36730;49.036;9.094;2022-07-19T11:47:45;33.40;36.70
47174;DHT22;36730;49.036;9.094;2022-07-19T11:50:12;33.40;36.70
47174;DHT22;36730;49.036;9.094;2022-07-19T11:52:57;33.40;36.50
47174;DHT22;36730;49.036;9.094;2022-07-19T11:55:31;33.40;36.80
47174;DHT22;36730;49.036;9.094;2022-07-19T11:57:59;33.50;36.40
47174;DHT22;36730;49.036;9.094;2022-07-19T12:00:24;33.50;36.80
47174;DHT22;36730;49.036;9.094;2022-07-19T12:05:23;33.50;36.70
47174;DHT22;36730;49.036;9.094;2022-07-19T12:07:49;33.50;36.60
47174;DHT22;36730;49.036;9.094;2022-07-19T12:13:00;33.60;36.90
47174;DHT22;36730;49.036;9.094;2022-07-19T12:15:25;33.60;37.10
47174;DHT22;36730;49.036;9.094;2022-07-19T12:17:57;33.60;37.30
47174;DHT22;36730;49.036;9.094;2022-07-19T12:20:23;33.60;36.50
47174;DHT22;36730;49.036;9.094;2022-07-19T12:22:48;33.70;36.40
47174;DHT22;36730;49.036;9.094;2022-07-19T12:25:16;33.70;36.40
47174;DHT22;36730;49.036;9.094;2022-07-19T12:28:00;33.70;38.10
47174;DHT22;36730;49.036;9.094;2022-07-19T12:30:25;33.70;37.40
47174;DHT22;36730;49.036;9.094;2022-07-19T12:32:52;33.70;37.40
47174;DHT22;36730;49.036;9.094;2022-07-19T12:35:18;33.80;37.20
47174;DHT22;36730;49.036;9.094;2022-07-19T12:37:45;33.70;37.00
47174;DHT22;36730;49.036;9.094;2022-07-19T12:40:12;33.80;37.20
47174;DHT22;36730;49.036;9.094;2022-07-19T12:45:04;33.80;37.50
47174;DHT22;36730;49.036;9.094;2022-07-19T12:47:30;33.90;37.00
47174;DHT22;36730;49.036;9.094;2022-07-19T12:49:56;34.00;37.50
47174;DHT22;36730;49.036;9.094;2022-07-19T12:52:21;33.90;37.40
47174;DHT22;36730;49.036;9.094;2022-07-19T12:54:47;33.90;36.80
47174;DHT22;36730;49.036;9.094;2022-07-19T12:57:12;33.90;36.90
47174;DHT22;36730;49.036;9.094;2022-07-19T12:59:38;33.90;36.80
47174;DHT22;36730;49.036;9.094;2022-07-19T13:02:10;34.00;37.20
47174;DHT22;36730;49.036;9.094;2022-07-19T13:04:37;33.90;36.50
47174;DHT22;36730;49.036;9.094;2022-07-19T13:07:02;34.00;37.20
47174;DHT22;36730;49.036;9.094;2022-07-19T13:09:28;34.00;36.00
47174;DHT22;36730;49.036;9.094;2022-07-19T13:11:54;34.00;36.60
47174;DHT22;36730;49.036;9.094;2022-07-19T13:14:19;34.00;35.80
47174;DHT22;36730;49.036;9.094;2022-07-19T13:16:45;34.00;36.60
47174;DHT22;36730;49.036;9.094;2022-07-19T13:19:10;33.90;36.60
47174;DHT22;36730;49.036;9.094;2022-07-19T13:21:36;34.00;37.00
47174;DHT22;36730;49.036;9.094;2022-07-19T13:24:01;34.00;36.30
47174;DHT22;36730;49.036;9.094;2022-07-19T13:26:27;34.00;35.90
47174;DHT22;36730;49.036;9.094;2022-07-19T13:28:53;34.00;36.00
47174;DHT22;36730;49.036;9.094;2022-07-19T13:31:18;34.00;36.70
47174;DHT22;36730;49.036;9.094;2022-07-19T13:33:43;34.00;35.80
47174;DHT22;36730;49.036;9.094;2022-07-19T13:36:09;34.10;35.80
47174;DHT22;36730;49.036;9.094;2022-07-19T13:38:34;34.00;35.50
47174;DHT22;36730;49.036;9.094;2022-07-19T13:41:03;34.00;36.10
47174;DHT22;36730;49.036;9.094;2022-07-19T13:43:29;34.00;35.80
47174;DHT22;36730;49.036;9.094;2022-07-19T13:45:55;34.10;36.20
47174;DHT22;36730;49.036;9.094;2022-07-19T13:48:20;34.10;36.70
47174;DHT22;36730;49.036;9.094;2022-07-19T13:50:48;34.10;36.50
47174;DHT22;36730;49.036;9.094;2022-07-19T13:53:14;34.10;36.30
47174;DHT22;36730;49.036;9.094;2022-07-19T13:55:40;34.10;36.70
47174;DHT22;36730;49.036;9.094;2022-07-19T13:58:05;34.20;37.00
47174;DHT22;36730;49.036;9.094;2022-07-19T14:00:31;34.20;37.10
47174;DHT22;36730;49.036;9.094;2022-07-19T14:02:56;34.20;36.80
47174;DHT22;36730;49.036;9.094;2022-07-19T14:05:22;34.30;37.00
47174;DHT22;36730;49.036;9.094;2022-07-19T14:07:47;34.30;36.50
47174;DHT22;36730;49.036;9.094;2022-07-19T14:10:13;34.30;36.50
47174;DHT22;36730;49.036;9.094;2022-07-19T14:12:39;34.30;36.60
47174;DHT22;36730;49.036;9.094;2022-07-19T14:15:04;34.30;37.00
47174;DHT22;36730;49.036;9.094;2022-07-19T14:17:30;34.30;37.10
47174;DHT22;36730;49.036;9.094;2022-07-19T14:19:55;34.30;36.90
47174;DHT22;36730;49.036;9.094;2022-07-19T14:22:21;34.30;36.40
47174;DHT22;36730;49.036;9.094;2022-07-19T14:24:46;34.30;36.80
47174;DHT22;36730;49.036;9.094;2022-07-19T14:27:12;34.40;36.50
47174;DHT22;36730;49.036;9.094;2022-07-19T14:29:37;34.40;36.50
47174;DHT22;36730;49.036;9.094;2022-07-19T14:32:03;34.40;36.90
47174;DHT22;36730;49.036;9.094;2022-07-19T14:34:29;34.40;36.50
47174;DHT22;36730;49.036;9.094;2022-07-19T14:36:54;34.40;36.50
47174;DHT22;36730;49.036;9.094;2022-07-19T14:39:20;34.50;36.40
47174;DHT22;36730;49.036;9.094;2022-07-19T14:41:46;34.40;36.90
47174;DHT22;36730;49.036;9.094;2022-07-19T14:44:11;34.50;36.40
47174;DHT22;36730;49.036;9.094;2022-07-19T14:46:37;34.50;36.10
47174;DHT22;36730;49.036;9.094;2022-07-19T14:49:02;34.50;36.40
47174;DHT22;36730;49.036;9.094;2022-07-19T14:51:28;34.60;36.10
47174;DHT22;36730;49.036;9.094;2022-07-19T14:53:53;34.60;36.70
47174;DHT22;36730;49.036;9.094;2022-07-19T14:56:19;34.60;36.10
47174;DHT22;36730;49.036;9.094;2022-07-19T14:58:44;34.60;35.80
47174;DHT22;36730;49.036;9.094;2022-07-19T15:01:10;34.70;36.80
47174;DHT22;36730;49.036;9.094;2022-07-19T15:03:36;34.70;35.90
47174;DHT22;36730;49.036;9.094;2022-07-19T15:06:01;34.70;36.20
47174;DHT22;36730;49.036;9.094;2022-07-19T15:08:27;34.70;35.60
47174;DHT22;36730;49.036;9.094;2022-07-19T15:10:53;34.70;36.00
47174;DHT22;36730;49.036;9.094;2022-07-19T15:13:18;34.80;35.50
47174;DHT22;36730;49.036;9.094;2022-07-19T15:15:44;34.80;35.30
47174;DHT22;36730;49.036;9.094;2022-07-19T15:18:09;34.80;35.50
47174;DHT22;36730;49.036;9.094;2022-07-19T15:20:36;34.80;35.00
47174;DHT22;36730;49.036;9.094;2022-07-19T15:23:01;34.80;35.00
47174;DHT22;36730;49.036;9.094;2022-07-19T15:25:27;34.80;35.00
47174;DHT22;36730;49.036;9.094;2022-07-19T15:27:52;34.80;34.90
47174;DHT22;36730;49.036;9.094;2022-07-19T15:30:18;34.80;34.90
47174;DHT22;36730;49.036;9.094;2022-07-19T15:32:44;34.80;35.20
47174;DHT22;36730;49.036;9.094;2022-07-19T15:35:10;34.80;35.00
47174;DHT22;36730;49.036;9.094;2022-07-19T15:37:36;34.80;35.50
47174;DHT22;36730;49.036;9.094;2022-07-19T15:40:02;34.80;36.00
47174;DHT22;36730;49.036;9.094;2022-07-19T15:42:27;34.90;35.50
47174;DHT22;36730;49.036;9.094;2022-07-19T15:44:53;34.80;35.20
47174;DHT22;36730;49.036;9.094;2022-07-19T15:47:18;34.80;37.10
47174;DHT22;36730;49.036;9.094;2022-07-19T15:49:44;34.80;35.70
47174;DHT22;36730;49.036;9.094;2022-07-19T15:52:09;34.80;35.10